Time;durP1;ratioP1;P1;durP2;ratioP2;P2;SDS_P1;SDS_P2;PMS_P1;PMS_P2;Temp;Humidity;BMP_temperature;BMP_pressure;BME280_temperature;BME280_humidity;BME280_pressure;Samples;Min_cycle;Max_cycle;Signal;HPM_P1;HPM_P2
2020/12/16 00:02:53;;;;;;;61.80;32.80;;;;;;;4.75;71.96;100487.38;2249794;78;33113;-63
2020/12/16 00:05:59;;;;;;;69.92;35.38;;;;;;;4.77;71.94;100486.04;2245731;79;29788;-63
2020/12/16 00:09:01;;;;;;;63.85;34.03;;;;;;;4.75;71.97;100487.38;2245798;79;27559;-62
2020/12/16 00:12:04;;;;;;;54.50;30.92;;;;;;;4.78;71.93;100486.46;2263688;77;29831;-64
2020/12/16 00:15:08;;;;;;;58.63;32.48;;;;;;;4.81;71.97;100490.34;2207696;80;31136;-63
2020/12/16 00:18:11;;;;;;;58.00;31.00;;;;;;;4.85;72.05;100500.88;2223510;80;33985;-62
2020/12/16 00:21:26;;;;;;;51.10;27.02;;;;;;;4.92;72.15;100494.09;2198643;80;29813;-63
2020/12/16 00:24:42;;;;;;;57.98;30.17;;;;;;;4.96;72.12;100494.44;2100167;84;27706;-70
2020/12/16 00:27:45;;;;;;;53.50;28.00;;;;;;;4.98;72.08;100497.94;2101423;84;30171;-66
2020/12/16 00:30:48;;;;;;;51.90;28.17;;;;;;;5.00;72.04;100502.30;2101628;83;31126;-63
2020/12/16 00:33:51;;;;;;;52.10;27.52;;;;;;;5.01;72.00;100502.71;2101501;84;33195;-62
2020/12/16 00:36:53;;;;;;;47.98;25.85;;;;;;;5.02;72.04;100507.11;2101533;84;28124;-68
2020/12/16 00:39:55;;;;;;;49.80;28.05;;;;;;;5.03;72.06;100508.01;2101534;84;28256;-62
2020/12/16 00:42:58;;;;;;;52.88;27.27;;;;;;;5.02;72.06;100515.55;2106604;83;28829;-63
2020/12/16 00:46:00;;;;;;;47.62;25.85;;;;;;;4.98;71.91;100517.38;2101452;84;31160;-71
2020/12/16 00:49:02;;;;;;;50.20;24.85;;;;;;;4.95;71.82;100518.80;2079447;84;33131;-62
2020/12/16 00:52:05;;;;;;;43.50;22.98;;;;;;;4.92;71.90;100525.94;2077033;84;29068;-64
2020/12/16 00:55:07;;;;;;;50.10;24.35;;;;;;;4.93;71.96;100527.25;2095107;84;27754;-63
2020/12/16 00:58:09;;;;;;;47.53;24.30;;;;;;;4.96;71.88;100528.95;2094987;84;31151;-63
2020/12/16 01:01:11;;;;;;;50.98;24.92;;;;;;;4.98;72.02;100531.98;2069319;84;32109;-64
2020/12/16 01:04:13;;;;;;;44.70;23.38;;;;;;;5.04;72.00;100530.11;2059795;86;32587;-63
2020/12/16 01:07:15;;;;;;;46.77;24.40;;;;;;;5.06;71.79;100535.79;2060688;86;28868;-64
2020/12/16 01:10:19;;;;;;;43.52;23.87;;;;;;;5.06;71.84;100535.79;2060734;86;27783;-62
2020/12/16 01:13:21;;;;;;;39.55;21.70;;;;;;;5.04;71.62;100536.31;2090898;84;28804;-62
2020/12/16 01:16:24;;;;;;;41.73;21.37;;;;;;;4.98;71.46;100536.44;2077367;84;31087;-62
2020/12/16 01:19:26;;;;;;;39.75;22.45;;;;;;;4.93;71.52;100536.55;2060657;83;34560;-62
2020/12/16 01:22:28;;;;;;;48.50;23.80;;;;;;;4.91;71.71;100537.03;2139603;82;30227;-64
2020/12/16 01:25:30;;;;;;;43.83;23.95;;;;;;;4.89;71.69;100530.88;2144935;82;27726;-62
2020/12/16 01:28:32;;;;;;;51.53;27.32;;;;;;;4.83;71.51;100531.89;2152741;82;29264;-64
2020/12/16 01:31:41;;;;;;;52.78;28.40;;;;;;;4.77;71.66;100547.94;2149263;82;31014;-63
2020/12/16 01:34:43;;;;;;;54.88;32.75;;;;;;;4.78;71.79;100548.36;2137985;82;32896;-61
2020/12/16 01:37:45;;;;;;;65.15;35.68;;;;;;;4.74;71.72;100555.11;2164076;82;28906;-62
2020/12/16 01:40:48;;;;;;;52.03;29.37;;;;;;;4.69;71.72;100555.21;2163033;81;27604;-62
2020/12/16 01:43:50;;;;;;;53.00;28.47;;;;;;;4.66;71.78;100553.47;2150065;81;29722;-64
2020/12/16 01:46:56;;;;;;;46.23;26.17;;;;;;;4.71;72.06;100558.23;2149946;82;31147;-62
2020/12/16 01:49:59;;;;;;;48.58;26.12;;;;;;;4.78;72.19;100558.98;2137856;81;33118;-62
2020/12/16 01:53:02;;;;;;;41.53;24.35;;;;;;;4.85;72.17;100571.23;2168051;81;28859;-62
2020/12/16 01:56:04;;;;;;;42.60;23.95;;;;;;;4.91;72.15;100570.66;2164087;81;28183;-62
2020/12/16 01:59:09;;;;;;;40.60;22.50;;;;;;;4.95;72.11;100565.70;2127671;83;28828;-63
2020/12/16 02:02:13;;;;;;;48.80;23.87;;;;;;;4.98;72.07;100560.33;2147107;81;31145;-63
2020/12/16 02:05:19;;;;;;;45.63;24.03;;;;;;;5.00;72.00;100563.83;2143208;82;34186;-62
2020/12/16 02:08:21;;;;;;;46.85;25.55;;;;;;;5.01;71.99;100568.23;2174388;81;28658;-62
2020/12/16 02:11:23;;;;;;;48.90;24.82;;;;;;;4.99;71.93;100581.52;2187753;81;27643;-64
2020/12/16 02:14:26;;;;;;;39.38;23.05;;;;;;;4.98;71.90;100582.89;2171341;81;28881;-64
2020/12/16 02:17:28;;;;;;;38.85;22.10;;;;;;;4.94;71.82;100578.12;2163917;81;32208;-62
2020/12/16 02:20:30;;;;;;;36.30;21.52;;;;;;;4.91;71.85;100583.48;2134184;83;33576;-62
2020/12/16 02:23:33;;;;;;;40.20;20.05;;;;;;;4.90;71.96;100587.05;2173312;81;28869;-62
2020/12/16 02:26:40;;;;;;;37.13;19.40;;;;;;;4.92;72.14;100584.34;2197836;81;27630;-63
2020/12/16 02:29:43;;;;;;;32.98;19.35;;;;;;;4.94;72.20;100578.12;2146171;81;28624;-62
2020/12/16 02:32:45;;;;;;;38.13;21.50;;;;;;;4.99;72.14;100581.52;2147847;82;31113;-62
2020/12/16 02:35:47;;;;;;;38.33;22.37;;;;;;;5.05;72.29;100580.51;2157106;82;34449;-62
2020/12/16 02:38:51;;;;;;;32.98;19.23;;;;;;;5.12;72.33;100583.93;2157240;82;28858;-63
2020/12/16 02:42:05;;;;;;;40.15;20.20;;;;;;;5.18;72.25;100585.09;2157264;82;27721;-63
2020/12/16 02:45:08;;;;;;;34.15;18.40;;;;;;;5.21;72.24;100586.36;2156856;82;28813;-65
2020/12/16 02:48:09;;;;;;;35.38;18.27;;;;;;;5.22;72.07;100589.87;2172216;79;31102;-62
2020/12/16 02:51:12;;;;;;;32.38;18.12;;;;;;;5.23;72.04;100592.95;2219815;79;33050;-61
2020/12/16 02:54:14;;;;;;;34.35;18.87;;;;;;;5.24;72.12;100604.89;2177981;81;29269;-62
2020/12/16 02:57:16;;;;;;;38.25;20.90;;;;;;;5.27;72.00;100597.30;2178064;81;27603;-61
2020/12/16 03:00:18;;;;;;;35.48;19.73;;;;;;;5.27;72.05;100588.89;2172688;81;28814;-62
2020/12/16 03:03:20;;;;;;;39.75;19.73;;;;;;;5.26;71.94;100591.56;2210837;80;31334;-61
2020/12/16 03:06:23;;;;;;;36.42;19.50;;;;;;;5.25;71.95;100594.69;2138739;83;33127;-67
2020/12/16 03:09:26;;;;;;;35.35;18.82;;;;;;;5.28;72.11;100597.72;2210638;80;29029;-67
2020/12/16 03:12:28;;;;;;;34.10;18.30;;;;;;;5.30;72.21;100598.56;2217586;80;27624;-63
2020/12/16 03:15:32;;;;;;;37.80;19.60;;;;;;;5.35;72.24;100597.12;2179669;81;28927;-63
2020/12/16 03:18:35;;;;;;;33.98;19.60;;;;;;;5.40;72.20;100608.05;2179643;81;31144;-62
2020/12/16 03:21:37;;;;;;;35.15;19.73;;;;;;;5.46;72.24;100611.05;2169791;81;33106;-63
2020/12/16 03:24:39;;;;;;;36.13;19.20;;;;;;;5.52;72.18;100620.66;2165873;81;28858;-62
2020/12/16 03:27:42;;;;;;;31.15;18.37;;;;;;;5.56;72.17;100611.67;2154848;82;27638;-61
2020/12/16 03:30:44;;;;;;;34.33;19.00;;;;;;;5.59;72.13;100619.14;2155451;81;30141;-61
2020/12/16 03:33:47;;;;;;;35.68;20.37;;;;;;;5.62;72.17;100621.73;2155277;82;31194;-62
2020/12/16 03:36:50;;;;;;;39.38;21.77;;;;;;;5.63;72.07;100627.91;2155304;82;33131;-61
2020/12/16 03:39:52;;;;;;;36.20;20.88;;;;;;;5.63;72.04;100624.78;2155344;82;28863;-62
2020/12/16 03:42:54;;;;;;;40.73;22.17;;;;;;;5.63;72.01;100620.80;2160854;81;27623;-62
2020/12/16 03:45:57;;;;;;;37.15;20.85;;;;;;;5.63;72.06;100620.80;2178374;80;28883;-61
2020/12/16 03:48:59;;;;;;;43.73;21.45;;;;;;;5.64;72.08;100628.33;2180511;80;30797;-62
2020/12/16 03:52:01;;;;;;;38.65;20.92;;;;;;;5.61;72.05;100628.39;2182159;81;33535;-62
2020/12/16 03:55:03;;;;;;;43.38;21.45;;;;;;;5.60;72.09;100634.63;2223619;80;29668;-61
2020/12/16 03:58:05;;;;;;;36.10;19.65;;;;;;;5.61;72.17;100634.60;2183202;81;27680;-61
2020/12/16 04:01:10;;;;;;;36.53;21.60;;;;;;;5.65;72.21;100630.08;2213314;80;29259;-62
2020/12/16 04:04:12;;;;;;;40.08;20.70;;;;;;;5.69;72.17;100634.86;2145400;83;30468;-61
2020/12/16 04:07:15;;;;;;;40.25;21.07;;;;;;;5.73;72.25;100634.73;2185057;81;33130;-61
2020/12/16 04:10:17;;;;;;;40.43;21.60;;;;;;;5.77;72.24;100639.08;2153424;81;29622;-62
2020/12/16 04:13:19;;;;;;;37.70;22.00;;;;;;;5.81;72.20;100642.53;2219290;80;27652;-61
2020/12/16 04:16:22;;;;;;;39.98;20.97;;;;;;;5.83;72.18;100637.19;2183110;81;29311;-61
2020/12/16 04:19:24;;;;;;;37.70;20.90;;;;;;;5.84;72.08;100640.27;2222689;80;31191;-62
2020/12/16 04:22:29;;;;;;;40.10;21.87;;;;;;;5.85;72.03;100640.22;2141447;83;34047;-61
2020/12/16 04:25:33;;;;;;;42.17;21.63;;;;;;;5.85;72.02;100638.89;2141666;83;29209;-62
2020/12/16 04:28:36;;;;;;;38.60;21.97;;;;;;;5.86;71.99;100633.99;2169609;80;27693;-67
2020/12/16 04:31:39;;;;;;;40.55;20.55;;;;;;;5.84;71.80;100640.27;2183476;81;28936;-62
2020/12/16 04:34:41;;;;;;;41.18;21.17;;;;;;;5.82;71.85;100628.80;2183485;81;30912;-62
2020/12/16 04:37:48;;;;;;;41.35;21.40;;;;;;;5.80;71.84;100634.13;2202988;80;33112;-62
2020/12/16 04:40:51;;;;;;;38.28;20.62;;;;;;;5.81;71.83;100639.02;2166894;81;29159;-62
2020/12/16 04:43:55;;;;;;;51.30;22.05;;;;;;;5.82;71.91;100635.44;2219962;80;27792;-62
2020/12/16 04:46:57;;;;;;;39.20;20.62;;;;;;;5.87;71.94;100638.40;2223693;80;29848;-63
2020/12/16 04:49:59;;;;;;;42.08;22.27;;;;;;;5.89;71.89;100640.56;2178078;81;31203;-61
2020/12/16 04:53:07;;;;;;;44.18;22.30;;;;;;;5.91;71.83;100640.52;2174661;81;34317;-61
2020/12/16 04:56:13;;;;;;;40.25;22.55;;;;;;;5.92;71.84;100643.16;2173744;81;29176;-62
2020/12/16 04:59:15;;;;;;;47.03;22.87;;;;;;;5.94;71.85;100637.79;2155871;81;27618;-59
2020/12/16 05:02:17;;;;;;;48.45;23.30;;;;;;;5.96;71.82;100636.44;2145980;81;30221;-59
2020/12/16 05:05:20;;;;;;;51.33;25.23;;;;;;;5.96;71.83;100641.76;2137577;83;32140;-60
2020/12/16 05:08:23;;;;;;;56.33;26.42;;;;;;;5.95;71.71;100642.67;2161220;81;33115;-68
2020/12/16 05:11:30;;;;;;;65.42;27.98;;;;;;;5.95;71.81;100646.66;2168873;81;29157;-60
2020/12/16 05:14:33;;;;;;;57.67;26.57;;;;;;;5.96;71.73;100637.77;2137130;83;28094;-66
2020/12/16 05:17:36;;;;;;;64.22;28.15;;;;;;;5.92;71.79;100644.48;2137467;83;28810;-64
2020/12/16 05:20:41;;;;;;;73.55;28.12;;;;;;;5.92;71.65;100648.48;2148664;81;31232;-63
2020/12/16 05:23:44;;;;;;;61.77;25.17;;;;;;;5.91;71.81;100648.49;2136969;83;34177;-68
2020/12/16 05:26:53;;;;;;;61.98;27.05;;;;;;;5.93;71.88;100651.99;2136939;83;29179;-65
2020/12/16 05:30:03;;;;;;;66.10;26.50;;;;;;;5.97;71.88;100662.98;2146525;81;27718;-69
2020/12/16 05:33:06;;;;;;;68.87;27.13;;;;;;;5.99;71.86;100653.63;2162030;81;27815;-67
2020/12/16 05:36:10;;;;;;;56.30;23.92;;;;;;;6.02;71.89;100662.45;2155112;81;31643;-62
2020/12/16 05:39:12;;;;;;;60.60;25.27;;;;;;;6.05;71.93;100661.49;2174431;81;33154;-62
2020/12/16 05:42:16;;;;;;;47.23;22.65;;;;;;;6.09;71.82;100664.50;2138919;81;30134;-66
2020/12/16 05:45:22;;;;;;;48.10;23.30;;;;;;;6.12;71.79;100672.84;2147509;82;27710;-62
2020/12/16 05:48:30;;;;;;;47.13;23.45;;;;;;;6.11;71.69;100682.62;2137208;83;28908;-61
2020/12/16 05:51:32;;;;;;;52.35;25.20;;;;;;;6.11;71.65;100686.62;2201566;80;31203;-65
2020/12/16 05:54:36;;;;;;;43.75;21.50;;;;;;;6.12;71.58;100693.69;2224020;80;33219;-61
2020/12/16 05:57:39;;;;;;;51.88;23.98;;;;;;;6.10;71.63;100698.17;2182971;81;29167;-62
2020/12/16 06:01:00;;;;;;;56.58;25.08;;;;;;;6.09;71.60;100700.41;2211743;80;27984;-68
2020/12/16 06:04:03;;;;;;;53.68;24.67;;;;;;;6.07;71.59;100703.09;2188674;80;28817;-63
2020/12/16 06:07:07;;;;;;;52.58;22.75;;;;;;;6.05;71.57;100705.37;2185083;81;31579;-62
2020/12/16 06:10:11;;;;;;;45.35;23.52;;;;;;;6.06;71.62;100702.66;2204114;80;33108;-63
2020/12/16 06:13:15;;;;;;;45.50;22.62;;;;;;;6.07;71.60;100708.41;2224059;80;29347;-62
2020/12/16 06:16:17;;;;;;;44.98;23.50;;;;;;;6.11;71.63;100708.34;2185107;81;27725;-63
2020/12/16 06:19:26;;;;;;;44.05;21.93;;;;;;;6.14;71.64;100704.28;2222601;80;28844;-62
2020/12/16 06:22:32;;;;;;;42.38;21.52;;;;;;;6.16;71.59;100704.65;2193295;80;31951;-64
2020/12/16 06:25:36;;;;;;;47.53;22.37;;;;;;;6.19;71.55;100706.38;2184233;80;33960;-62
2020/12/16 06:28:39;;;;;;;48.50;24.35;;;;;;;6.21;71.56;100709.84;2199703;80;29167;-62
2020/12/16 06:31:42;;;;;;;48.85;24.87;;;;;;;6.21;71.49;100709.84;2160584;81;27713;-63
2020/12/16 06:34:46;;;;;;;51.25;25.52;;;;;;;6.21;71.46;100714.73;2223930;80;29856;-61
2020/12/16 06:37:54;;;;;;;46.73;24.72;;;;;;;6.20;71.40;100725.42;2183276;81;31965;-61
2020/12/16 06:40:58;;;;;;;42.53;22.85;;;;;;;6.18;71.39;100732.56;2216233;80;33113;-64
2020/12/16 06:44:11;;;;;;;42.03;23.87;;;;;;;6.17;71.34;100741.45;2223825;80;29168;-61
2020/12/16 06:47:19;;;;;;;44.88;23.65;;;;;;;6.15;71.35;100748.59;2179305;81;27678;-61
2020/12/16 06:50:22;;;;;;;40.95;19.82;;;;;;;6.13;71.26;100751.73;2199475;80;28821;-60
2020/12/16 06:53:25;;;;;;;42.23;20.55;;;;;;;6.11;71.29;100757.11;2188655;81;31148;-65
2020/12/16 06:56:29;;;;;;;36.65;20.77;;;;;;;6.11;71.35;100756.22;2123656;82;33560;-66
2020/12/16 06:59:52;;;;;;;44.40;23.52;;;;;;;6.13;71.45;100757.06;2188455;81;29111;-67
2020/12/16 07:02:56;;;;;;;46.85;22.48;;;;;;;6.16;71.51;100764.50;2149580;80;28110;-64
2020/12/16 07:05:59;;;;;;;43.80;22.48;;;;;;;6.19;71.48;100768.42;2177667;80;32408;-63
2020/12/16 07:09:23;;;;;;;41.35;22.13;;;;;;;6.23;71.48;100776.77;2223110;80;32022;-64
2020/12/16 07:12:30;;;;;;;38.45;21.15;;;;;;;6.26;71.50;100781.59;2222992;80;33098;-61
2020/12/16 07:16:10;;;;;;;39.25;22.15;;;;;;;6.28;71.45;100782.44;2207862;80;29209;-61
2020/12/16 07:19:28;;;;;;;40.05;21.50;;;;;;;6.29;71.43;100785.52;2146738;82;27714;-68
2020/12/16 07:22:32;;;;;;;36.93;20.97;;;;;;;6.29;71.46;100778.86;2188871;81;28821;-68
2020/12/16 07:25:37;;;;;;;42.62;21.35;;;;;;;6.29;71.38;100778.86;2188947;81;31220;-67
2020/12/16 07:28:40;;;;;;;42.05;22.20;;;;;;;6.28;71.43;100781.97;2171341;81;33109;-61
2020/12/16 07:31:59;;;;;;;45.40;23.83;;;;;;;6.27;71.41;100788.20;2200951;79;29624;-64
2020/12/16 07:35:02;;;;;;;39.67;20.65;;;;;;;6.26;71.42;100781.12;2186911;81;27802;-61
2020/12/16 07:38:04;;;;;;;42.20;21.05;;;;;;;6.23;71.50;100771.44;2228006;79;28651;-66
2020/12/16 07:41:07;;;;;;;44.00;22.52;;;;;;;6.27;71.54;100778.88;2158357;81;32542;-68
2020/12/16 07:44:10;;;;;;;45.05;23.95;;;;;;;6.31;71.57;100775.68;2188931;81;34411;-67
2020/12/16 07:47:14;;;;;;;43.58;24.90;;;;;;;6.34;71.61;100779.17;2149215;82;29261;-66
2020/12/16 07:50:18;;;;;;;48.08;26.82;;;;;;;6.38;71.56;100783.48;2161730;81;27708;-67
2020/12/16 07:53:20;;;;;;;50.92;30.80;;;;;;;6.45;71.60;100779.34;2168242;81;30176;-62
2020/12/16 07:56:23;;;;;;;53.58;32.65;;;;;;;6.49;71.58;100775.23;2212716;80;31136;-61
2020/12/16 07:59:32;;;;;;;64.00;34.15;;;;;;;6.53;71.61;100773.39;2138706;83;33108;-67
2020/12/16 08:02:38;;;;;;;61.95;34.73;;;;;;;6.56;71.64;100779.94;2177483;81;29146;-68
2020/12/16 08:05:42;;;;;;;57.65;33.25;;;;;;;6.60;71.55;100787.41;2138799;83;36790;-67
2020/12/16 08:08:51;;;;;;;60.65;35.23;;;;;;;6.63;71.59;100793.53;2178021;81;28932;-61
2020/12/16 08:11:55;;;;;;;58.75;32.20;;;;;;;6.66;71.58;100804.11;2138702;83;31096;-64
2020/12/16 08:15:13;;;;;;;60.55;30.25;;;;;;;6.68;71.59;100798.73;2178248;81;34237;-66
2020/12/16 08:18:17;;;;;;;56.85;30.80;;;;;;;6.72;71.60;100813.72;2150683;81;28979;-61
2020/12/16 08:21:24;;;;;;;54.10;29.87;;;;;;;6.78;71.64;100814.02;2204122;80;27656;-62
2020/12/16 08:24:26;;;;;;;51.88;28.52;;;;;;;6.85;71.65;100820.95;2215088;80;29078;-70
2020/12/16 08:27:31;;;;;;;45.37;23.70;;;;;;;6.92;71.64;100819.00;2210795;80;31130;-68
2020/12/16 08:30:37;;;;;;;45.15;23.90;;;;;;;7.01;71.65;100820.55;2215050;80;33179;-67
2020/12/16 08:33:41;;;;;;;46.88;24.32;;;;;;;7.10;71.62;100829.61;2210692;80;29163;-67
2020/12/16 08:36:45;;;;;;;51.73;25.48;;;;;;;7.17;71.60;100817.00;2185752;80;27742;-66
2020/12/16 08:39:48;;;;;;;48.25;26.70;;;;;;;7.02;71.77;100792.52;2174722;80;28817;-68
2020/12/16 08:42:51;;;;;;;45.50;26.10;;;;;;;7.27;71.50;100828.70;2155237;82;31160;-67
2020/12/16 08:46:16;;;;;;;50.90;27.15;;;;;;;7.31;71.35;100830.81;2178223;81;34022;-69
2020/12/16 08:49:23;;;;;;;57.93;28.75;;;;;;;7.33;71.30;100838.31;2178249;81;30106;-68
2020/12/16 08:55:42;;;;;;;93.10;36.67;;;;;;;7.41;71.06;100839.44;2252344;77;27660;-66
2020/12/16 08:58:44;;;;;;;63.25;29.32;;;;;;;7.35;71.04;100840.95;2217789;80;27623;-65
2020/12/16 09:01:51;;;;;;;46.92;25.05;;;;;;;7.33;70.99;100840.13;2215260;80;28801;-61
2020/12/16 09:05:16;;;;;;;43.70;23.20;;;;;;;7.33;71.07;100840.13;2189579;80;31156;-61
2020/12/16 09:08:19;;;;;;;45.40;23.67;;;;;;;7.32;70.97;100847.22;2050138;85;33155;-61
2020/12/16 09:11:24;;;;;;;44.45;23.40;;;;;;;7.35;70.73;100848.95;2072836;85;28645;-65
2020/12/16 09:14:30;;;;;;;46.37;25.25;;;;;;;7.35;70.84;100848.95;2072732;85;27869;-62
2020/12/16 09:17:35;;;;;;;54.38;26.97;;;;;;;7.37;70.84;100849.75;2072709;85;28136;-66
2020/12/16 09:20:38;;;;;;;43.95;25.20;;;;;;;7.41;70.69;100846.98;2072208;85;31265;-64
2020/12/16 09:23:41;;;;;;;54.18;26.80;;;;;;;7.44;70.71;100848.24;2072591;85;33996;-61
2020/12/16 09:26:45;;;;;;;49.45;27.35;;;;;;;7.45;70.49;100845.96;2072538;85;28875;-64
2020/12/16 09:29:48;;;;;;;44.53;21.82;;;;;;;7.49;70.61;100846.77;2038936;87;27817;-64
2020/12/16 09:32:51;;;;;;;63.05;29.50;;;;;;;7.56;70.64;100852.33;2038724;87;28840;-61
2020/12/16 09:35:54;;;;;;;58.25;29.77;;;;;;;7.63;70.59;100854.84;2047290;86;32605;-63
2020/12/16 09:39:01;;;;;;;68.57;33.98;;;;;;;7.67;70.44;100857.36;2070996;85;34062;-62
2020/12/16 09:42:14;;;;;;;66.17;31.68;;;;;;;7.71;70.40;100864.81;2072609;85;28860;-66
2020/12/16 09:45:32;;;;;;;68.57;33.80;;;;;;;7.77;70.12;100861.98;2297509;76;30443;-60
2020/12/16 09:48:35;;;;;;;67.75;34.65;;;;;;;7.66;69.92;100871.61;2262810;78;27705;-60
2020/12/16 09:51:38;;;;;;;67.42;33.80;;;;;;;7.60;70.03;100875.33;2253103;78;28793;-61
2020/12/16 09:54:43;;;;;;;62.80;31.85;;;;;;;7.57;70.08;100871.41;2222260;80;31179;-66
2020/12/16 09:58:04;;;;;;;;;;;;;;;7.60;70.29;100874.47;2225029;80;33192;-60
2020/12/16 10:01:09;;;;;;;64.22;31.10;;;;;;;7.62;69.90;100879.27;2222660;78;28547;-68
2020/12/16 10:04:12;;;;;;;67.17;33.45;;;;;;;7.62;69.78;100873.08;2222229;80;27650;-61
2020/12/16 10:07:15;;;;;;;66.53;32.63;;;;;;;7.63;70.17;100872.17;2222509;80;28892;-68
2020/12/16 10:10:38;;;;;;;67.75;32.23;;;;;;;7.68;70.23;100869.78;2222504;80;32374;-67
2020/12/16 10:13:43;;;;;;;73.70;39.27;;;;;;;7.74;70.23;100866.06;2115191;83;33622;-61
2020/12/16 10:16:49;;;;;;;68.28;35.60;;;;;;;7.79;70.23;100868.15;2113500;84;28658;-63
2020/12/16 10:19:53;;;;;;;135.75;77.55;;;;;;;7.81;69.93;100870.31;2113522;84;28135;-64
2020/12/16 10:22:57;;;;;;;221.87;147.37;;;;;;;7.82;70.00;100874.73;2113407;84;28837;-67
2020/12/16 10:26:06;;;;;;;101.33;64.85;;;;;;;7.84;69.98;100872.00;2113320;84;32192;-65
2020/12/16 10:29:12;;;;;;;77.95;43.45;;;;;;;7.84;70.08;100874.23;2113328;83;33127;-62
2020/12/16 10:32:21;;;;;;;66.92;37.40;;;;;;;7.84;69.94;100870.23;2089995;84;29610;-65
2020/12/16 10:35:24;;;;;;;74.80;39.60;;;;;;;7.87;70.08;100864.78;2106455;84;27674;-68
2020/12/16 10:38:27;;;;;;;79.35;48.92;;;;;;;7.91;69.93;100881.59;2106349;84;28830;-61
2020/12/16 10:41:29;;;;;;;73.60;39.23;;;;;;;7.89;69.81;100872.28;2106286;83;31223;-64
2020/12/16 10:44:32;;;;;;;83.27;46.58;;;;;;;7.88;69.63;100874.53;2105917;84;34037;-64
2020/12/16 10:47:35;;;;;;;76.02;41.08;;;;;;;7.90;70.02;100879.37;2106283;84;29291;-61
2020/12/16 10:50:38;;;;;;;89.03;53.83;;;;;;;7.95;70.03;100870.36;2106434;84;27713;-67
2020/12/16 10:53:40;;;;;;;82.37;44.55;;;;;;;7.99;69.93;100868.88;2106429;83;29782;-62
2020/12/16 10:56:43;;;;;;;57.65;30.08;;;;;;;8.05;69.87;100870.05;2105679;84;31157;-61
2020/12/16 10:59:47;;;;;;;63.58;33.85;;;;;;;8.06;69.54;100870.47;2137776;83;33982;-61
2020/12/16 11:02:52;;;;;;;84.13;47.70;;;;;;;8.06;69.57;100869.12;2138874;83;28834;-60
2020/12/16 11:05:54;;;;;;;75.20;45.20;;;;;;;8.09;69.58;100872.62;2139144;83;27818;-60
2020/12/16 11:09:00;;;;;;;83.40;52.15;;;;;;;8.05;69.47;100867.83;2138905;83;28813;-60
2020/12/16 11:12:03;;;;;;;64.95;39.18;;;;;;;8.03;69.54;100858.55;2108490;83;31149;-60
2020/12/16 11:15:09;;;;;;;64.20;35.45;;;;;;;8.03;69.67;100857.21;2129457;83;33977;-61
2020/12/16 11:18:12;;;;;;;66.02;38.15;;;;;;;8.07;69.56;100851.31;2129497;83;29295;-62
2020/12/16 11:21:15;;;;;;;54.53;31.02;;;;;;;8.07;69.55;100852.64;2129558;83;28277;-61
2020/12/16 11:24:21;;;;;;;51.30;29.40;;;;;;;8.11;69.68;100850.78;2129521;83;29841;-61
2020/12/16 11:27:24;;;;;;;61.42;34.98;;;;;;;8.13;69.63;100848.47;2101382;83;31180;-61
2020/12/16 11:30:30;;;;;;;65.65;33.20;;;;;;;8.16;69.60;100845.71;2129327;83;33182;-62
2020/12/16 11:33:33;;;;;;;56.75;29.57;;;;;;;8.19;69.63;100842.06;2092077;83;28854;-62
2020/12/16 11:36:42;;;;;;;59.03;32.42;;;;;;;8.20;69.47;100844.67;2086899;85;27748;-61
2020/12/16 11:39:46;;;;;;;55.92;29.63;;;;;;;8.25;69.59;100838.32;2060251;85;29784;-62
2020/12/16 11:42:51;;;;;;;57.20;30.88;;;;;;;8.29;69.57;100839.98;2105365;83;32107;-60
2020/12/16 11:45:55;;;;;;;56.30;30.52;;;;;;;8.34;69.45;100842.05;2129624;83;33111;-61
2020/12/16 11:48:59;;;;;;;56.77;33.05;;;;;;;8.41;69.33;100844.06;2129218;83;29722;-61
2020/12/16 11:52:03;;;;;;;54.67;30.00;;;;;;;8.47;69.46;100845.19;2129463;83;27701;-61
2020/12/16 11:55:06;;;;;;;57.35;30.62;;;;;;;8.54;69.32;100843.22;2129547;83;28843;-60
2020/12/16 11:58:09;;;;;;;53.68;29.77;;;;;;;8.56;69.10;100847.61;2129509;83;32188;-61
2020/12/16 12:01:21;;;;;;;55.12;29.90;;;;;;;8.59;69.26;100841.28;2129286;83;33364;-62
2020/12/16 12:04:45;;;;;;;57.48;28.23;;;;;;;8.64;69.16;100834.00;2129602;83;28943;-61
2020/12/16 12:07:48;;;;;;;52.30;29.40;;;;;;;8.64;69.10;100832.19;2055799;86;27749;-61
2020/12/16 12:10:51;;;;;;;57.80;28.62;;;;;;;8.65;69.03;100829.94;2055645;86;28884;-61
2020/12/16 12:14:16;;;;;;;49.35;26.93;;;;;;;8.67;68.93;100835.24;2055445;86;32050;-61
2020/12/16 12:17:19;;;;;;;54.67;29.35;;;;;;;8.65;68.94;100833.94;1899510;93;33125;-61
2020/12/16 12:20:25;;;;;;;57.53;30.68;;;;;;;8.64;68.88;100834.00;1881479;94;29773;-61
2020/12/16 12:23:39;;;;;;;50.40;28.73;;;;;;;8.65;68.75;100829.08;2248656;78;31430;-59
2020/12/16 12:26:43;;;;;;;51.68;27.85;;;;;;;8.59;68.79;100834.16;2228889;79;28177;-61
2020/12/16 12:29:48;;;;;;;50.43;28.27;;;;;;;8.58;68.85;100840.42;2228950;79;28808;-63
2020/12/16 12:32:51;;;;;;;;;;;;;;;8.58;68.76;100839.53;2231448;79;31147;-63
2020/12/16 12:35:54;;;;;;;53.50;28.02;;;;;;;8.55;68.65;100843.19;2228471;79;35370;-63
2020/12/16 12:38:56;;;;;;;55.12;27.25;;;;;;;8.52;68.90;100841.95;2228607;79;29480;-61
2020/12/16 12:41:59;;;;;;;56.23;28.17;;;;;;;8.54;68.67;100844.11;2228627;79;28117;-61
2020/12/16 12:45:05;;;;;;;55.00;28.05;;;;;;;8.55;68.68;100843.19;2228701;79;30265;-61
2020/12/16 12:48:09;;;;;;;57.58;29.20;;;;;;;8.55;68.54;100847.20;2228442;79;32004;-60
2020/12/16 12:51:14;;;;;;;54.98;27.98;;;;;;;8.54;68.62;100854.79;2229204;79;34073;-61
2020/12/16 12:54:17;;;;;;;48.98;26.40;;;;;;;8.55;68.62;100856.54;2228824;79;28827;-60
2020/12/16 12:57:20;;;;;;;53.42;28.57;;;;;;;8.57;68.66;100850.70;2221082;79;27634;-61
2020/12/16 13:00:22;;;;;;;49.30;26.93;;;;;;;8.56;68.52;100850.28;2226445;79;29786;-61
2020/12/16 13:03:25;;;;;;;54.00;29.48;;;;;;;8.46;68.18;100849.67;2227417;79;31223;-60
2020/12/16 13:06:28;;;;;;;56.42;27.07;;;;;;;8.38;68.45;100850.36;2228564;79;33127;-60
2020/12/16 13:09:32;;;;;;;52.13;28.98;;;;;;;8.38;68.70;100853.02;2228716;79;28844;-62
2020/12/16 13:12:35;;;;;;;38.88;23.55;;;;;;;8.38;68.73;100856.17;2228139;79;27702;-61
2020/12/16 13:15:37;;;;;;;50.05;27.85;;;;;;;8.34;68.73;100864.75;2228786;79;29719;-65
2020/12/16 13:18:40;;;;;;;50.25;29.37;;;;;;;8.29;68.67;100865.34;2228084;79;32115;-62
2020/12/16 13:21:52;;;;;;;138.77;75.83;;;;;;;8.26;68.81;100866.77;2222381;79;33104;-61
2020/12/16 13:24:55;;;;;;;424.40;231.13;;;;;;;8.21;68.79;100864.25;2169309;82;31118;-62
2020/12/16 13:27:58;;;;;;;81.92;45.33;;;;;;;8.16;68.89;100864.83;2169363;82;27732;-61
2020/12/16 13:31:03;;;;;;;96.70;54.77;;;;;;;8.14;68.92;100864.00;2211975;78;29741;-61
2020/12/16 13:34:09;;;;;;;55.38;31.10;;;;;;;8.11;68.93;100864.13;2258280;78;32107;-61
2020/12/16 13:37:16;;;;;;;69.05;40.25;;;;;;;8.10;69.09;100866.38;2186228;80;28133;-61
2020/12/16 13:40:19;;;;;;;93.78;49.93;;;;;;;8.14;69.15;100868.00;2207092;80;28866;-61
2020/12/16 13:43:25;;;;;;;72.53;43.15;;;;;;;8.15;69.14;100871.98;2207258;80;27664;-61
2020/12/16 13:46:27;;;;;;;71.12;36.08;;;;;;;8.16;69.05;100873.73;2206853;80;29773;-61
2020/12/16 13:49:51;;;;;;;150.60;88.35;;;;;;;8.17;69.16;100883.49;2207008;80;32024;-64
2020/12/16 13:52:56;;;;;;;69.42;37.93;;;;;;;8.19;69.10;100890.10;2172359;80;33950;-67
2020/12/16 13:55:58;;;;;;;48.90;27.63;;;;;;;8.18;69.05;100891.91;2178185;80;31181;-61
2020/12/16 13:59:01;;;;;;;71.92;44.63;;;;;;;8.15;69.16;100896.00;2202432;80;27713;-60
2020/12/16 14:02:04;;;;;;;56.45;32.10;;;;;;;8.13;69.17;100895.17;2202453;80;30081;-61
2020/12/16 14:05:10;;;;;;;57.98;34.03;;;;;;;8.15;69.24;100894.67;2167676;80;32104;-61
2020/12/16 14:08:12;;;;;;;65.83;38.67;;;;;;;8.17;69.27;100904.84;2141918;82;32762;-61
2020/12/16 14:11:15;;;;;;;55.75;30.60;;;;;;;8.16;69.23;100904.42;2142898;83;29814;-61
2020/12/16 14:14:18;;;;;;;53.02;29.80;;;;;;;8.16;69.31;100903.09;2142837;83;27661;-60